createdAt,value
2022-10-07T00:04:25.545Z,1.80
2022-10-07T00:09:28.902Z,1.73
2022-10-07T00:14:33.961Z,2.28
2022-10-07T00:19:37.313Z,2.38
2022-10-07T00:24:40.915Z,2.25
2022-10-07T00:29:48.783Z,2.13
2022-10-07T00:34:52.318Z,2.17
2022-10-07T00:39:55.571Z,1.85
2022-10-07T00:45:05.362Z,1.95
2022-10-07T00:50:12.482Z,1.88
2022-10-07T00:55:22.106Z,2.05
2022-10-07T01:00:26.702Z,1.70
2022-10-07T01:05:30.298Z,1.77
2022-10-07T01:10:40.709Z,1.73
2022-10-07T01:15:52.298Z,2.28
2022-10-07T01:21:01.375Z,1.80
2022-10-07T01:26:39.297Z,1.98
2022-10-07T01:31:48.852Z,2.00
2022-10-07T01:36:55.402Z,2.10
2022-10-07T01:42:00.949Z,1.70
2022-10-07T01:47:04.670Z,2.88
2022-10-07T01:52:25.192Z,2.50
2022-10-07T01:57:40.033Z,2.08
2022-10-07T02:03:01.629Z,2.30
2022-10-07T02:08:16.459Z,2.00
2022-10-07T02:13:29.763Z,2.42
2022-10-07T02:18:36.384Z,1.92
2022-10-07T02:23:43.193Z,2.30
2022-10-07T02:28:53.849Z,2.00
2022-10-07T02:33:58.731Z,2.22
2022-10-07T02:39:02.487Z,2.10
2022-10-07T02:44:15.817Z,1.80
2022-10-07T02:49:21.940Z,1.75
2022-10-07T02:54:28.626Z,2.47
2022-10-07T02:59:34.950Z,2.00
2022-10-07T03:04:39.068Z,1.88
2022-10-07T03:09:43.964Z,1.92
2022-10-07T03:14:50.020Z,2.13
2022-10-07T03:19:53.233Z,2.05
2022-10-07T03:24:59.253Z,2.10
2022-10-07T03:30:04.515Z,2.30
2022-10-07T03:35:09.583Z,2.28
2022-10-07T03:40:12.809Z,2.40
2022-10-07T03:45:17.562Z,2.00
2022-10-07T03:50:21.914Z,2.70
2022-10-07T03:55:25.168Z,2.53
2022-10-07T04:00:29.922Z,2.40
2022-10-07T04:05:33.276Z,2.45
2022-10-07T04:10:37.014Z,2.30
2022-10-07T04:15:41.673Z,2.88
2022-10-07T04:20:45.279Z,2.00
2022-10-07T04:25:50.196Z,3.08
2022-10-07T04:30:56.375Z,2.08
2022-10-07T04:36:05.828Z,2.10
2022-10-07T04:41:09.490Z,2.60
2022-10-07T04:46:14.840Z,2.95
2022-10-07T04:51:18.462Z,2.90
2022-10-07T04:56:22.416Z,2.22
2022-10-07T05:01:52.043Z,2.97
2022-10-07T05:06:55.509Z,2.47
2022-10-07T05:11:58.796Z,2.83
2022-10-07T05:17:03.880Z,2.60
2022-10-07T05:22:07.567Z,2.40
2022-10-07T05:27:10.913Z,2.40
2022-10-07T05:32:15.810Z,2.65
2022-10-07T05:37:39.150Z,2.60
2022-10-07T05:42:42.969Z,2.30
2022-10-07T05:47:48.330Z,2.47
2022-10-07T05:52:52.121Z,2.85
2022-10-07T05:57:55.786Z,3.00
2022-10-07T06:03:02.732Z,2.30
2022-10-07T06:08:06.118Z,2.40
2022-10-07T06:13:10.661Z,2.72
2022-10-07T06:18:15.540Z,2.40
2022-10-07T06:23:18.811Z,2.95
2022-10-07T06:28:22.354Z,2.38
2022-10-07T06:33:26.968Z,2.53
2022-10-07T06:38:30.196Z,2.28
2022-10-07T06:43:35.572Z,2.92
2022-10-07T06:48:42.438Z,2.60
2022-10-07T06:53:55.209Z,2.60
2022-10-07T06:58:58.488Z,2.42
2022-10-07T07:04:04.041Z,2.58
2022-10-07T07:09:07.294Z,2.58
2022-10-07T07:14:13.808Z,2.20
2022-10-07T07:19:18.514Z,2.00
2022-10-07T07:24:21.736Z,2.60
2022-10-07T07:29:26.793Z,3.28
2022-10-07T07:34:33.870Z,3.17
2022-10-07T07:39:37.149Z,3.70
2022-10-07T07:44:40.572Z,4.07
2022-10-07T07:49:46.147Z,4.40
2022-10-07T07:54:49.849Z,3.35
2022-10-07T07:59:53.196Z,3.92
2022-10-07T08:04:58.151Z,4.50
2022-10-07T08:10:01.347Z,3.58
2022-10-07T08:15:04.870Z,3.53
2022-10-07T08:20:12.107Z,2.97
2022-10-07T08:25:16.886Z,3.70
2022-10-07T08:30:20.221Z,2.97
2022-10-07T08:35:24.887Z,2.78
2022-10-07T08:40:28.280Z,4.10
2022-10-07T08:45:34.353Z,4.10
2022-10-07T08:50:50.613Z,4.00
2022-10-07T08:55:56.410Z,5.05
2022-10-07T09:01:03.979Z,5.57
2022-10-07T09:06:19.020Z,4.97
2022-10-07T09:11:26.002Z,4.80
2022-10-07T09:16:33.708Z,4.40
2022-10-07T09:21:44.309Z,4.50
2022-10-07T09:26:47.606Z,3.83
2022-10-07T09:31:51.040Z,4.30
2022-10-07T09:37:20.818Z,3.88
2022-10-07T09:42:32.678Z,4.40
2022-10-07T09:47:46.292Z,4.07
2022-10-07T09:58:27.543Z,4.53
2022-10-07T10:03:32.799Z,4.03
2022-10-07T10:08:40.010Z,3.97
2022-10-07T10:13:43.399Z,4.32
2022-10-07T10:18:55.038Z,4.00
2022-10-07T10:24:03.814Z,4.00
2022-10-07T10:29:15.104Z,4.22
2022-10-07T10:34:35.316Z,4.50
2022-10-07T10:39:57.632Z,4.30
2022-10-07T10:45:27.756Z,4.75
2022-10-07T10:50:41.739Z,3.95
2022-10-07T10:56:10.759Z,3.70
2022-10-07T11:01:26.478Z,4.07
2022-10-07T11:06:33.829Z,3.80
2022-10-07T11:11:38.560Z,4.07
2022-10-07T11:16:45.311Z,3.47
2022-10-07T11:21:51.892Z,3.70
2022-10-07T11:27:01.437Z,4.35
2022-10-07T11:32:14.870Z,3.60
2022-10-07T11:37:24.707Z,3.35
2022-10-07T11:42:34.779Z,3.40
2022-10-07T11:47:43.203Z,3.03
2022-10-07T11:52:49.428Z,3.20
2022-10-07T11:58:00.494Z,3.63
2022-10-07T12:03:13.890Z,4.10
2022-10-07T12:08:31.001Z,3.85
2022-10-07T12:13:41.684Z,4.53
2022-10-07T12:19:23.064Z,3.83
2022-10-07T12:24:28.328Z,3.67
2022-10-07T12:29:58.722Z,4.13
2022-10-07T12:35:36.419Z,3.80
2022-10-07T12:40:40.701Z,3.78
2022-10-07T12:45:45.697Z,3.75
2022-10-07T12:50:52.254Z,4.03
2022-10-07T12:55:57.607Z,3.28
2022-10-07T13:01:16.929Z,3.78
2022-10-07T13:06:46.034Z,3.80
2022-10-07T13:12:13.077Z,4.40
2022-10-07T13:17:40.950Z,4.72
2022-10-07T13:22:48.038Z,3.78
2022-10-07T13:27:56.101Z,3.92
2022-10-07T13:33:20.520Z,3.55
2022-10-07T13:38:25.512Z,2.83
2022-10-07T13:43:30.479Z,2.90
2022-10-07T13:48:41.799Z,3.30
2022-10-07T13:53:55.109Z,2.83
2022-10-07T13:58:59.409Z,3.47
2022-10-07T14:04:16.500Z,3.60
2022-10-07T14:09:26.553Z,3.28
2022-10-07T14:14:34.906Z,3.13
2022-10-07T14:19:40.666Z,3.00
2022-10-07T14:24:52.311Z,3.40
2022-10-07T14:29:55.711Z,2.67
2022-10-07T14:35:22.998Z,2.83
2022-10-07T14:40:26.396Z,2.53
2022-10-07T14:45:30.169Z,3.38
2022-10-07T14:50:36.220Z,2.55
2022-10-07T14:55:40.543Z,3.05
2022-10-07T15:00:43.870Z,3.10
2022-10-07T15:05:48.915Z,3.60
2022-10-07T15:10:52.451Z,2.60
2022-10-07T15:15:55.880Z,2.55
2022-10-07T15:21:00.566Z,2.50
2022-10-07T15:26:04.321Z,2.30
2022-10-07T15:31:11.111Z,2.95
2022-10-07T15:36:17.849Z,2.53
2022-10-07T15:41:32.496Z,2.78
2022-10-07T15:46:36.646Z,3.33
2022-10-07T15:51:41.692Z,2.58
2022-10-07T15:56:45.370Z,2.85
2022-10-07T16:01:51.976Z,2.83
2022-10-07T16:06:56.658Z,2.88
2022-10-07T16:12:00.285Z,2.50
2022-10-07T16:17:04.308Z,2.85
2022-10-07T16:22:09.987Z,3.15
2022-10-07T16:27:13.238Z,2.45
2022-10-07T16:32:16.824Z,3.30
2022-10-07T16:37:21.406Z,3.38
2022-10-07T16:42:24.717Z,3.35
2022-10-07T16:47:27.973Z,3.45
2022-10-07T16:52:34.405Z,4.13
2022-10-07T16:57:37.601Z,3.97
2022-10-07T17:02:40.813Z,4.03
2022-10-07T17:07:45.556Z,4.63
2022-10-07T17:12:48.982Z,4.43
2022-10-07T17:17:58.573Z,3.90
2022-10-07T17:23:04.268Z,3.75
2022-10-07T17:28:07.564Z,5.20
2022-10-07T17:33:17.846Z,5.07
2022-10-07T17:38:22.591Z,5.22
2022-10-07T17:43:25.913Z,6.60
2022-10-07T17:48:29.314Z,5.15
2022-10-07T17:53:34.940Z,6.93
2022-10-07T17:58:42.975Z,5.35
2022-10-07T18:03:52.334Z,7.18
2022-10-07T18:09:01.177Z,7.00
2022-10-07T18:14:31.330Z,8.65
2022-10-07T18:19:39.702Z,8.43
2022-10-07T18:24:44.626Z,7.28
2022-10-07T18:29:47.974Z,7.22
2022-10-07T18:34:51.300Z,6.78
2022-10-07T18:39:56.977Z,7.53
2022-10-07T18:45:00.314Z,6.63
2022-10-07T18:50:04.671Z,6.95
2022-10-07T18:55:10.709Z,7.13
2022-10-07T19:00:19.254Z,6.65
2022-10-07T19:05:22.501Z,6.25
2022-10-07T19:10:27.316Z,5.90
2022-10-07T19:15:30.626Z,6.15
2022-10-07T19:20:36.443Z,6.85
2022-10-07T19:25:51.257Z,6.40
2022-10-07T19:30:57.338Z,6.18
2022-10-07T19:36:02.516Z,7.22
2022-10-07T19:41:10.497Z,6.70
2022-10-07T19:46:14.517Z,8.05
2022-10-07T19:51:19.825Z,8.05
2022-10-07T19:56:29.133Z,8.52
2022-10-07T20:01:36.309Z,7.03
2022-10-07T20:06:39.641Z,6.85
2022-10-07T20:11:44.641Z,7.53
2022-10-07T20:16:48.140Z,7.72
2022-10-07T20:21:51.480Z,7.72
2022-10-07T20:26:56.442Z,7.93
2022-10-07T20:31:59.766Z,7.05
2022-10-07T20:37:02.975Z,8.50
2022-10-07T20:42:25.814Z,8.93
2022-10-07T20:47:31.125Z,8.93
2022-10-07T20:52:36.834Z,9.65
2022-10-07T20:57:41.888Z,7.93
2022-10-07T21:02:48.386Z,8.27
2022-10-07T21:07:54.651Z,8.85
2022-10-07T21:13:00.442Z,8.48
2022-10-07T21:18:03.662Z,8.70
2022-10-07T21:23:06.966Z,8.30
2022-10-07T21:28:11.851Z,8.38
2022-10-07T21:33:15.121Z,7.63
2022-10-07T21:38:18.321Z,7.90
2022-10-07T21:43:24.033Z,7.40
2022-10-07T21:48:30.216Z,7.68
2022-10-07T21:53:34.365Z,8.05
2022-10-07T21:58:39.276Z,7.57
2022-10-07T22:03:43.256Z,7.43
2022-10-07T22:08:48.106Z,6.95
2022-10-07T22:13:55.180Z,7.45
2022-10-07T22:18:58.877Z,8.30
2022-10-07T22:24:04.424Z,8.55
2022-10-07T22:29:10.808Z,8.55
2022-10-07T22:34:46.269Z,9.30
2022-10-07T22:39:51.529Z,8.77
2022-10-07T22:44:56.590Z,8.75
2022-10-07T22:50:00.619Z,8.05
2022-10-07T22:55:05.013Z,7.80
2022-10-07T23:00:11.592Z,7.63
2022-10-07T23:05:16.409Z,7.55
2022-10-07T23:10:19.773Z,8.95
2022-10-07T23:15:27.612Z,9.15
2022-10-07T23:20:30.952Z,9.18
2022-10-07T23:25:34.262Z,9.20
2022-10-07T23:30:39.784Z,8.70
2022-10-07T23:35:44.663Z,8.18
2022-10-07T23:40:49.069Z,8.68
2022-10-07T23:45:53.776Z,9.75
2022-10-07T23:50:59.239Z,9.68
2022-10-07T23:56:02.796Z,9.10
